createdAt,value
2019-01-09T00:01:50.891Z,43.63
2019-01-09T00:04:21.197Z,49.53
2019-01-09T00:06:51.523Z,47.73
2019-01-09T00:09:21.787Z,45.53
2019-01-09T00:11:52.171Z,46.77
2019-01-09T00:14:22.423Z,49.20
2019-01-09T00:16:52.791Z,47.80
2019-01-09T00:19:23.150Z,49.27
2019-01-09T00:21:54.395Z,46.00
2019-01-09T00:24:24.811Z,47.53
2019-01-09T00:26:55.129Z,46.37
2019-01-09T00:29:25.446Z,46.60
2019-01-09T00:31:55.844Z,47.20
2019-01-09T00:34:26.202Z,45.87
2019-01-09T00:36:56.610Z,45.83
2019-01-09T00:39:26.900Z,46.00
2019-01-09T00:41:57.177Z,43.07
2019-01-09T00:44:27.476Z,44.23
2019-01-09T00:46:57.727Z,40.50
2019-01-09T00:49:28.033Z,41.40
2019-01-09T00:51:58.308Z,41.17
2019-01-09T00:54:29.592Z,40.83
2019-01-09T00:56:59.871Z,41.37
2019-01-09T00:59:30.126Z,42.90
2019-01-09T01:02:24.370Z,41.50
2019-01-09T01:05:45.823Z,42.23
2019-01-09T01:08:45.804Z,41.40
2019-01-09T01:11:36.942Z,40.30
2019-01-09T01:15:15.478Z,41.70
2019-01-09T01:18:00.011Z,40.87
2019-01-09T01:20:54.372Z,40.90
2019-01-09T01:24:00.020Z,41.83
2019-01-09T01:26:51.470Z,40.43
2019-01-09T01:30:13.487Z,37.60
2019-01-09T01:33:31.332Z,38.70
2019-01-09T01:36:48.686Z,38.27
2019-01-09T01:39:52.602Z,34.00
2019-01-09T01:43:03.584Z,37.00
2019-01-09T01:45:56.662Z,39.13
2019-01-09T01:49:03.490Z,39.47
2019-01-09T01:52:10.782Z,38.27
2019-01-09T01:55:08.032Z,39.17
2019-01-09T01:58:21.934Z,36.70
2019-01-09T02:01:26.661Z,38.93
2019-01-09T02:04:21.085Z,38.73
2019-01-09T02:07:30.958Z,39.53
2019-01-09T02:10:38.949Z,40.80
2019-01-09T02:13:46.590Z,41.27
2019-01-09T02:16:50.566Z,42.23
2019-01-09T02:19:26.230Z,43.70
2019-01-09T02:22:32.574Z,40.17
2019-01-09T02:25:24.689Z,40.30
2019-01-09T02:28:09.897Z,37.63
2019-01-09T02:31:06.078Z,39.67
2019-01-09T02:33:36.380Z,40.67
2019-01-09T02:36:13.348Z,39.73
2019-01-09T02:38:38.512Z,39.53
2019-01-09T02:41:08.786Z,39.43
2019-01-09T02:43:39.149Z,41.17
2019-01-09T02:46:09.329Z,41.57
2019-01-09T02:48:40.412Z,41.80
2019-01-09T02:51:10.650Z,41.27
2019-01-09T02:53:40.821Z,40.83
2019-01-09T02:56:10.997Z,41.33
2019-01-09T02:58:41.218Z,41.13
2019-01-09T03:01:11.498Z,40.57
2019-01-09T03:03:42.674Z,42.93
2019-01-09T03:06:22.715Z,44.43
2019-01-09T03:08:45.945Z,41.10
2019-01-09T03:11:16.136Z,40.93
2019-01-09T03:13:46.310Z,42.97
2019-01-09T03:16:16.454Z,42.30
2019-01-09T03:18:46.640Z,43.73
2019-01-09T03:21:16.945Z,43.97
2019-01-09T03:23:47.221Z,45.73
2019-01-09T03:26:17.558Z,44.83
2019-01-09T03:28:47.942Z,43.20
2019-01-09T03:31:18.233Z,42.67
2019-01-09T03:33:48.443Z,43.30
2019-01-09T03:36:18.597Z,42.67
2019-01-09T03:38:48.845Z,42.40
2019-01-09T03:41:20.153Z,40.73
2019-01-09T03:43:50.372Z,43.43
2019-01-09T03:46:20.677Z,42.93
2019-01-09T03:48:51.747Z,44.17
2019-01-09T03:51:21.967Z,43.73
2019-01-09T03:53:52.310Z,43.53
2019-01-09T03:56:22.474Z,42.97
2019-01-09T03:58:52.627Z,41.30
2019-01-09T04:01:22.828Z,43.40
2019-01-09T04:03:53.012Z,43.60
2019-01-09T04:06:23.241Z,42.93
2019-01-09T04:08:53.412Z,45.90
2019-01-09T04:11:23.630Z,43.97
2019-01-09T04:13:53.840Z,42.53
2019-01-09T04:16:24.087Z,42.60
2019-01-09T04:18:54.312Z,41.20
2019-01-09T04:21:24.497Z,41.73
2019-01-09T04:23:54.786Z,43.03
2019-01-09T04:26:25.023Z,43.20
2019-01-09T04:28:55.206Z,44.50
2019-01-09T04:31:25.372Z,44.23
2019-01-09T04:33:55.519Z,42.37
2019-01-09T04:36:25.678Z,44.47
2019-01-09T04:38:55.822Z,42.27
2019-01-09T04:41:26.111Z,43.27
2019-01-09T04:43:56.394Z,42.20
2019-01-09T04:46:26.681Z,44.53
2019-01-09T04:48:57.794Z,44.17
2019-01-09T04:51:28.185Z,45.77
2019-01-09T04:53:59.415Z,44.27
2019-01-09T04:56:29.993Z,42.73
2019-01-09T04:59:00.181Z,42.43
2019-01-09T05:01:30.353Z,43.93
2019-01-09T05:04:00.687Z,41.10
2019-01-09T05:06:30.975Z,42.47
2019-01-09T05:09:01.134Z,44.20
2019-01-09T05:11:32.994Z,49.30
2019-01-09T05:14:04.219Z,43.20
2019-01-09T05:16:34.478Z,42.50
2019-01-09T05:19:04.767Z,40.90
2019-01-09T05:21:35.034Z,42.97
2019-01-09T05:24:05.290Z,40.43
2019-01-09T05:26:35.517Z,40.63
2019-01-09T05:29:05.769Z,42.60
2019-01-09T05:31:36.037Z,40.83
2019-01-09T05:34:06.382Z,42.03
2019-01-09T05:36:36.697Z,41.13
2019-01-09T05:39:07.792Z,41.77
2019-01-09T05:41:37.986Z,43.23
2019-01-09T05:44:08.171Z,41.83
2019-01-09T05:46:38.343Z,41.47
2019-01-09T05:49:09.450Z,44.53
2019-01-09T05:51:39.690Z,45.80
2019-01-09T05:54:09.886Z,42.83
2019-01-09T05:56:40.039Z,42.30
2019-01-09T05:59:10.331Z,41.13
2019-01-09T06:01:40.529Z,41.83
2019-01-09T06:04:10.689Z,41.70
2019-01-09T06:06:40.853Z,42.20
2019-01-09T06:09:11.037Z,41.50
2019-01-09T06:11:41.253Z,40.73
2019-01-09T06:14:11.572Z,42.57
2019-01-09T06:16:41.746Z,42.77
2019-01-09T06:19:12.031Z,43.30
2019-01-09T06:21:42.173Z,43.10
2019-01-09T06:24:12.397Z,41.17
2019-01-09T06:26:42.586Z,42.23
2019-01-09T06:29:12.873Z,46.90
2019-01-09T06:31:43.059Z,40.87
2019-01-09T06:34:13.314Z,45.90
2019-01-09T06:36:43.683Z,43.13
2019-01-09T06:39:13.867Z,54.57
2019-01-09T06:41:44.053Z,52.30
2019-01-09T06:44:14.248Z,48.17
2019-01-09T06:46:44.410Z,47.70
2019-01-09T06:49:15.538Z,46.37
2019-01-09T06:51:45.754Z,41.80
2019-01-09T06:54:15.906Z,41.80
2019-01-09T06:56:46.108Z,41.30
2019-01-09T06:59:16.419Z,43.90
2019-01-09T07:01:46.662Z,42.27
2019-01-09T07:04:16.864Z,42.87
2019-01-09T07:06:47.025Z,43.60
2019-01-09T07:09:17.205Z,41.00
2019-01-09T07:11:48.241Z,41.10
2019-01-09T07:14:18.629Z,44.77
2019-01-09T07:16:48.825Z,41.80
2019-01-09T07:19:19.050Z,44.13
2019-01-09T07:21:49.206Z,42.63
2019-01-09T07:24:19.463Z,44.57
2019-01-09T07:26:49.647Z,49.67
2019-01-09T07:29:19.893Z,45.30
2019-01-09T07:31:50.061Z,47.53
2019-01-09T07:34:20.233Z,46.43
2019-01-09T07:36:50.477Z,41.33
2019-01-09T07:39:21.602Z,41.10
2019-01-09T07:41:51.787Z,41.70
2019-01-09T07:44:22.026Z,43.57
2019-01-09T07:46:52.181Z,43.23
2019-01-09T07:49:23.238Z,43.57
2019-01-09T07:51:53.405Z,45.67
2019-01-09T07:54:23.590Z,46.37
2019-01-09T07:56:53.810Z,46.57
2019-01-09T07:59:24.149Z,47.67
2019-01-09T08:01:54.369Z,47.40
2019-01-09T08:04:24.607Z,47.83
2019-01-09T08:06:54.797Z,50.87
2019-01-09T08:09:25.209Z,42.87
2019-01-09T08:11:55.553Z,42.67
2019-01-09T08:14:25.735Z,42.07
2019-01-09T08:16:56.049Z,45.60
2019-01-09T08:19:26.238Z,45.80
2019-01-09T08:21:56.482Z,46.83
2019-01-09T08:24:26.670Z,43.60
2019-01-09T08:26:56.897Z,47.60
2019-01-09T08:29:27.067Z,47.93
2019-01-09T08:31:57.235Z,42.97
2019-01-09T08:34:27.487Z,45.60
2019-01-09T08:36:57.638Z,44.90
2019-01-09T08:39:27.801Z,45.57
2019-01-09T08:41:58.170Z,47.10
2019-01-09T08:44:28.457Z,45.07
2019-01-09T08:46:58.623Z,47.43
2019-01-09T08:49:28.868Z,44.17
2019-01-09T08:51:59.057Z,43.50
2019-01-09T08:54:29.246Z,42.60
2019-01-09T08:56:59.413Z,41.53
2019-01-09T08:59:29.682Z,41.60
2019-01-09T09:01:59.849Z,44.20
2019-01-09T09:04:30.130Z,42.97
2019-01-09T09:07:00.325Z,43.70
2019-01-09T09:09:31.509Z,45.43
2019-01-09T09:12:01.793Z,54.80
2019-01-09T09:14:32.184Z,50.87
2019-01-09T09:17:02.389Z,41.40
2019-01-09T09:19:33.574Z,42.73
2019-01-09T09:22:03.745Z,40.23
2019-01-09T09:24:34.148Z,41.23
2019-01-09T09:27:05.397Z,41.67
2019-01-09T09:29:35.662Z,44.13
2019-01-09T09:32:05.829Z,45.50
2019-01-09T09:34:36.109Z,45.73
2019-01-09T09:37:09.529Z,45.00
2019-01-09T09:39:39.710Z,43.60
2019-01-09T09:42:10.302Z,42.67
2019-01-09T09:44:40.577Z,44.70
2019-01-09T09:47:10.742Z,43.87
2019-01-09T09:49:40.946Z,47.07
2019-01-09T09:52:11.198Z,44.87
2019-01-09T09:54:41.491Z,45.90
2019-01-09T09:57:11.764Z,41.50
2019-01-09T09:59:43.618Z,44.37
2019-01-09T10:02:14.155Z,44.67
2019-01-09T10:04:44.413Z,45.53
2019-01-09T10:07:14.602Z,48.57
2019-01-09T10:09:44.842Z,47.03
2019-01-09T10:12:14.993Z,44.53
2019-01-09T10:14:45.227Z,41.53
2019-01-09T10:17:15.370Z,42.20
2019-01-09T10:19:45.690Z,43.53
2019-01-09T10:22:15.858Z,43.50
2019-01-09T10:24:46.009Z,39.37
2019-01-09T10:27:16.166Z,41.80
2019-01-09T10:29:46.334Z,42.57
2019-01-09T10:32:16.467Z,43.30
2019-01-09T10:34:46.626Z,42.00
2019-01-09T10:37:16.781Z,42.57
2019-01-09T10:39:47.000Z,42.03
2019-01-09T10:42:17.271Z,40.80
2019-01-09T10:44:47.456Z,41.40
2019-01-09T10:47:17.597Z,38.73
2019-01-09T10:49:47.753Z,40.00
2019-01-09T10:52:17.975Z,40.63
2019-01-09T10:54:48.302Z,38.03
2019-01-09T10:57:18.519Z,39.50
2019-01-09T10:59:48.667Z,42.23
2019-01-09T11:02:25.955Z,42.47
2019-01-09T11:04:56.351Z,44.03
2019-01-09T11:07:29.560Z,44.77
2019-01-09T11:09:59.798Z,42.80
2019-01-09T11:12:29.952Z,43.97
2019-01-09T11:15:00.151Z,43.00
2019-01-09T11:17:30.425Z,44.37
2019-01-09T11:20:00.737Z,45.60
2019-01-09T11:22:30.889Z,49.50
2019-01-09T11:25:01.659Z,52.33
2019-01-09T11:27:32.278Z,49.73
2019-01-09T11:30:02.494Z,43.97
2019-01-09T11:32:32.720Z,45.37
2019-01-09T11:35:02.881Z,43.17
2019-01-09T11:37:33.031Z,45.50
2019-01-09T11:40:03.207Z,50.00
2019-01-09T11:42:33.362Z,48.47
2019-01-09T11:45:03.910Z,46.80
2019-01-09T11:47:34.138Z,48.10
2019-01-09T11:50:05.158Z,48.23
2019-01-09T11:52:35.611Z,49.90
2019-01-09T11:55:08.083Z,48.73
2019-01-09T11:57:38.430Z,47.67
2019-01-09T12:00:23.681Z,49.87
2019-01-09T12:02:54.075Z,49.33
2019-01-09T12:05:24.240Z,51.30
2019-01-09T12:07:54.389Z,51.57
2019-01-09T12:10:30.233Z,53.50
2019-01-09T12:12:57.233Z,48.13
2019-01-09T12:15:27.570Z,50.97
2019-01-09T12:17:57.718Z,51.23
2019-01-09T12:20:27.956Z,52.47
2019-01-09T12:22:58.107Z,51.60
2019-01-09T12:25:28.267Z,53.40
2019-01-09T12:27:58.472Z,53.30
2019-01-09T12:30:29.369Z,50.40
2019-01-09T12:32:59.583Z,51.73
2019-01-09T12:35:29.721Z,51.93
2019-01-09T12:37:59.942Z,56.50
2019-01-09T12:40:30.094Z,47.43
2019-01-09T12:43:00.289Z,49.07
2019-01-09T12:45:30.459Z,49.27
2019-01-09T12:48:00.665Z,49.17
2019-01-09T12:50:30.835Z,50.70
2019-01-09T12:53:00.986Z,51.43
2019-01-09T12:55:31.125Z,50.00
2019-01-09T12:58:02.287Z,51.27
2019-01-09T13:00:32.445Z,52.47
2019-01-09T13:03:02.638Z,54.23
2019-01-09T13:05:33.222Z,53.63
2019-01-09T13:08:03.414Z,54.33
2019-01-09T13:10:33.673Z,53.27
2019-01-09T13:13:04.265Z,58.07
2019-01-09T13:15:34.447Z,59.33
2019-01-09T13:18:05.397Z,56.43
2019-01-09T13:20:35.709Z,55.30
2019-01-09T13:23:05.990Z,53.57
2019-01-09T13:25:36.159Z,52.33
2019-01-09T13:28:06.306Z,53.97
2019-01-09T13:30:36.615Z,55.30
2019-01-09T13:33:19.671Z,55.63
2019-01-09T13:35:54.147Z,56.97
2019-01-09T13:38:24.318Z,54.70
2019-01-09T13:40:59.170Z,53.17
2019-01-09T13:43:35.242Z,50.07
2019-01-09T13:46:09.705Z,49.93
2019-01-09T13:48:47.089Z,48.07
2019-01-09T13:51:17.538Z,48.93
2019-01-09T13:53:47.702Z,50.43
2019-01-09T13:56:17.904Z,51.50
2019-01-09T13:58:48.127Z,48.67
2019-01-09T14:01:18.321Z,44.57
2019-01-09T14:03:48.674Z,48.20
2019-01-09T14:06:18.906Z,44.80
2019-01-09T14:08:49.122Z,42.07
2019-01-09T14:11:19.281Z,44.67
2019-01-09T14:13:49.433Z,43.60
2019-01-09T14:16:19.843Z,43.27
2019-01-09T14:18:55.149Z,43.53
2019-01-09T14:21:21.983Z,44.53
2019-01-09T14:23:52.121Z,44.57
2019-01-09T14:26:22.574Z,44.97
2019-01-09T14:28:52.710Z,46.53
2019-01-09T14:31:22.934Z,46.33
2019-01-09T14:33:53.103Z,43.43
2019-01-09T14:36:23.400Z,44.73
2019-01-09T14:38:53.640Z,48.63
2019-01-09T14:41:23.878Z,47.33
2019-01-09T14:43:54.038Z,47.23
2019-01-09T14:46:24.243Z,45.90
2019-01-09T14:48:54.571Z,45.53
2019-01-09T14:51:24.710Z,53.90
2019-01-09T14:53:54.940Z,51.77
2019-01-09T14:56:25.102Z,49.03
2019-01-09T14:58:55.251Z,46.77
2019-01-09T15:01:25.422Z,46.83
2019-01-09T15:03:55.636Z,46.70
2019-01-09T15:06:25.822Z,44.80
2019-01-09T15:08:56.061Z,48.77
2019-01-09T15:11:26.222Z,47.80
2019-01-09T15:13:56.453Z,51.47
2019-01-09T15:16:26.730Z,50.17
2019-01-09T15:18:56.902Z,50.00
2019-01-09T15:21:27.110Z,47.17
2019-01-09T15:23:57.342Z,45.80
2019-01-09T15:26:27.562Z,47.73
2019-01-09T15:28:57.845Z,48.73
2019-01-09T15:31:28.079Z,55.27
2019-01-09T15:33:58.277Z,57.30
2019-01-09T15:36:28.479Z,67.23
2019-01-09T15:38:58.654Z,60.20
2019-01-09T15:41:29.002Z,60.30
2019-01-09T15:43:59.135Z,52.67
2019-01-09T15:46:29.310Z,51.03
2019-01-09T15:48:59.550Z,51.60
2019-01-09T15:51:29.789Z,49.97
2019-01-09T15:54:00.089Z,52.60
2019-01-09T15:56:30.440Z,55.60
2019-01-09T15:59:00.606Z,52.87
2019-01-09T16:01:30.759Z,52.80
2019-01-09T16:04:00.980Z,51.03
2019-01-09T16:06:31.181Z,55.30
2019-01-09T16:09:02.475Z,51.37
2019-01-09T16:11:34.513Z,49.53
2019-01-09T16:14:04.721Z,52.50
2019-01-09T16:16:34.866Z,60.60
2019-01-09T16:19:05.131Z,57.60
2019-01-09T16:21:35.280Z,49.77
2019-01-09T16:24:05.546Z,55.40
2019-01-09T16:26:35.807Z,50.83
2019-01-09T16:29:06.142Z,51.43
2019-01-09T16:31:38.874Z,50.10
2019-01-09T16:34:09.141Z,50.47
2019-01-09T16:36:39.316Z,49.70
2019-01-09T16:39:10.614Z,48.60
2019-01-09T16:41:40.818Z,52.07
2019-01-09T16:44:10.959Z,55.83
2019-01-09T16:46:41.117Z,54.17
2019-01-09T16:49:11.612Z,52.97
2019-01-09T16:51:41.888Z,52.97
2019-01-09T16:54:12.188Z,50.73
2019-01-09T16:56:42.792Z,47.93
2019-01-09T16:59:13.025Z,50.37
2019-01-09T17:01:43.245Z,51.23
2019-01-09T17:04:13.426Z,52.00
2019-01-09T17:06:43.977Z,51.43
2019-01-09T17:09:14.268Z,54.73
2019-01-09T17:11:44.542Z,55.43
2019-01-09T17:14:14.813Z,55.23
2019-01-09T17:16:44.987Z,54.67
2019-01-09T17:19:15.286Z,54.40
2019-01-09T17:21:45.561Z,51.27
2019-01-09T17:24:15.789Z,52.40
2019-01-09T17:26:45.953Z,53.20
2019-01-09T17:29:16.288Z,54.80
2019-01-09T17:31:46.530Z,54.40
2019-01-09T17:34:16.871Z,55.93
2019-01-09T17:36:47.210Z,52.77
2019-01-09T17:39:17.494Z,54.27
2019-01-09T17:41:47.821Z,54.80
2019-01-09T17:44:17.983Z,55.97
2019-01-09T17:46:48.138Z,58.27
2019-01-09T17:49:18.333Z,53.23
2019-01-09T17:51:48.900Z,56.83
2019-01-09T17:54:19.130Z,57.70
2019-01-09T17:56:49.345Z,63.33
2019-01-09T17:59:19.531Z,62.93
2019-01-09T18:01:49.850Z,59.43
2019-01-09T18:04:20.406Z,62.63
2019-01-09T18:06:50.682Z,56.20
2019-01-09T18:09:21.040Z,62.47
2019-01-09T18:11:51.318Z,58.27
2019-01-09T18:14:21.510Z,54.37
2019-01-09T18:16:51.786Z,55.40
2019-01-09T18:19:21.960Z,57.90
2019-01-09T18:21:52.149Z,62.43
2019-01-09T18:24:22.786Z,62.73
2019-01-09T18:26:53.199Z,59.00
2019-01-09T18:29:23.395Z,57.63
2019-01-09T18:32:27.854Z,57.10
2019-01-09T18:36:00.672Z,56.17
2019-01-09T18:38:41.691Z,54.40
2019-01-09T18:41:50.138Z,54.20
2019-01-09T18:45:00.542Z,52.50
2019-01-09T18:48:13.425Z,51.33
2019-01-09T18:51:36.830Z,55.60
2019-01-09T18:54:07.075Z,57.17
2019-01-09T18:56:37.405Z,54.53
2019-01-09T18:59:07.653Z,53.93
2019-01-09T19:01:37.883Z,53.70
2019-01-09T19:04:08.562Z,52.30
2019-01-09T19:06:38.914Z,54.43
2019-01-09T19:09:10.914Z,48.50
2019-01-09T19:11:41.105Z,49.87
2019-01-09T19:14:11.324Z,51.40
2019-01-09T19:16:41.585Z,49.13
2019-01-09T19:19:11.790Z,51.83
2019-01-09T19:21:42.018Z,51.83
2019-01-09T19:24:12.225Z,52.93
2019-01-09T19:26:42.382Z,51.17
2019-01-09T19:29:13.158Z,53.73
2019-01-09T19:31:43.479Z,49.50
2019-01-09T19:34:13.743Z,48.40
2019-01-09T19:36:44.006Z,51.20
2019-01-09T19:39:14.229Z,50.80
2019-01-09T19:41:44.708Z,46.37
2019-01-09T19:44:14.997Z,44.97
2019-01-09T19:46:45.202Z,44.57
2019-01-09T19:49:16.099Z,44.33
2019-01-09T19:51:46.649Z,41.00
2019-01-09T19:54:16.930Z,41.83
2019-01-09T19:56:47.184Z,42.63
2019-01-09T19:59:17.438Z,40.60
2019-01-09T20:01:47.710Z,44.13
2019-01-09T20:04:17.938Z,42.33
2019-01-09T20:06:48.154Z,44.63
2019-01-09T20:09:18.361Z,44.37
2019-01-09T20:11:48.565Z,44.23
2019-01-09T20:14:18.844Z,42.97
2019-01-09T20:16:49.050Z,42.40
2019-01-09T20:19:19.398Z,47.50
2019-01-09T20:21:49.877Z,46.27
2019-01-09T20:24:20.122Z,46.30
2019-01-09T20:26:50.338Z,45.30
2019-01-09T20:29:20.565Z,48.60
2019-01-09T20:31:50.722Z,49.27
2019-01-09T20:34:20.928Z,51.17
2019-01-09T20:36:51.089Z,48.57
2019-01-09T20:39:21.691Z,48.30
2019-01-09T20:41:52.120Z,48.97
2019-01-09T20:44:22.288Z,45.93
2019-01-09T20:46:52.434Z,49.60
2019-01-09T20:49:22.821Z,47.87
2019-01-09T20:51:53.104Z,48.60
2019-01-09T20:54:23.584Z,45.10
2019-01-09T20:56:54.373Z,42.07
2019-01-09T20:59:24.998Z,40.63
2019-01-09T21:01:55.238Z,42.80
2019-01-09T21:04:25.510Z,41.37
2019-01-09T21:06:55.767Z,41.23
2019-01-09T21:09:25.998Z,41.07
2019-01-09T21:11:57.162Z,40.53
2019-01-09T21:14:27.342Z,40.87
2019-01-09T21:16:57.549Z,45.53
2019-01-09T21:19:27.748Z,50.10
2019-01-09T21:21:57.940Z,49.53
2019-01-09T21:24:28.081Z,49.50
2019-01-09T21:26:58.294Z,48.80
2019-01-09T21:29:28.765Z,48.27
2019-01-09T21:31:59.021Z,47.43
2019-01-09T21:34:29.252Z,46.63
2019-01-09T21:36:59.477Z,49.23
2019-01-09T21:39:29.702Z,53.70
2019-01-09T21:42:00.035Z,51.50
2019-01-09T21:44:30.313Z,50.80
2019-01-09T21:47:00.595Z,49.03
2019-01-09T21:49:30.858Z,51.10
2019-01-09T21:52:01.225Z,47.23
2019-01-09T21:54:31.682Z,44.30
2019-01-09T21:57:01.939Z,45.80
2019-01-09T21:59:32.101Z,41.90
2019-01-09T22:02:02.278Z,43.43
2019-01-09T22:04:32.663Z,42.63
2019-01-09T22:07:02.981Z,40.60
2019-01-09T22:09:33.258Z,43.23
2019-01-09T22:12:03.546Z,45.17
2019-01-09T22:14:33.793Z,44.40
2019-01-09T22:17:04.059Z,44.93
2019-01-09T22:19:34.409Z,44.83
2019-01-09T22:22:04.646Z,43.67
2019-01-09T22:24:34.815Z,46.10
2019-01-09T22:27:06.085Z,44.67
2019-01-09T22:29:36.240Z,45.03
2019-01-09T22:32:06.428Z,45.70
2019-01-09T22:34:36.642Z,44.37
2019-01-09T22:37:06.906Z,46.30
2019-01-09T22:39:37.066Z,45.03
2019-01-09T22:42:11.948Z,45.07
2019-01-09T22:44:39.090Z,44.70
2019-01-09T22:47:10.123Z,46.40
2019-01-09T22:49:40.322Z,46.30
2019-01-09T22:52:10.466Z,43.53
2019-01-09T22:54:40.645Z,45.50
2019-01-09T22:57:10.871Z,45.30
2019-01-09T22:59:41.038Z,100.17
2019-01-09T23:02:11.586Z,93.63
2019-01-09T23:04:41.925Z,49.20
2019-01-09T23:07:12.458Z,41.90
2019-01-09T23:09:42.597Z,40.33
2019-01-09T23:12:20.848Z,39.83
2019-01-09T23:14:44.750Z,38.43
2019-01-09T23:17:14.995Z,40.63
2019-01-09T23:19:45.193Z,40.73
2019-01-09T23:22:15.341Z,37.97
2019-01-09T23:24:45.486Z,39.97
2019-01-09T23:27:15.782Z,39.60
2019-01-09T23:29:46.064Z,40.07
2019-01-09T23:32:16.474Z,40.40
2019-01-09T23:34:47.620Z,41.50
2019-01-09T23:37:17.789Z,40.67
2019-01-09T23:39:47.947Z,43.57
2019-01-09T23:42:18.113Z,43.20
2019-01-09T23:44:48.330Z,43.53
2019-01-09T23:47:20.323Z,44.63
2019-01-09T23:49:50.501Z,42.13
2019-01-09T23:52:20.640Z,40.37
2019-01-09T23:54:50.826Z,42.73
2019-01-09T23:57:20.994Z,42.63
2019-01-09T23:59:51.146Z,43.47
